createdAt,value
2022-10-28T00:05:03.966Z,8.57
2022-10-28T00:13:09.276Z,8.82
2022-10-28T00:21:20.413Z,9.63
2022-10-28T00:29:26.263Z,8.77
2022-10-28T00:37:34.106Z,9.75
2022-10-28T00:45:39.434Z,9.45
2022-10-28T00:53:49.010Z,9.68
2022-10-28T01:01:54.593Z,9.98
2022-10-28T01:10:02.664Z,8.98
2022-10-28T01:18:22.894Z,7.85
2022-10-28T01:26:53.697Z,8.52
2022-10-28T01:35:13.226Z,8.00
2022-10-28T01:43:24.575Z,7.05
2022-10-28T01:51:35.322Z,7.68
2022-10-28T01:59:42.690Z,6.63
2022-10-28T02:07:52.533Z,6.78
2022-10-28T02:16:07.489Z,9.95
2022-10-28T02:24:22.816Z,7.90
2022-10-28T02:32:33.022Z,9.13
2022-10-28T02:40:42.589Z,10.90
2022-10-28T02:48:51.329Z,10.13
2022-10-28T02:57:05.187Z,9.60
2022-10-28T03:05:11.412Z,8.85
2022-10-28T03:13:19.354Z,8.98
2022-10-28T03:21:24.763Z,9.00
2022-10-28T03:29:32.682Z,10.65
2022-10-28T03:37:37.980Z,9.35
2022-10-28T03:45:46.188Z,8.95
2022-10-28T03:53:51.526Z,9.75
2022-10-28T04:01:59.527Z,9.63
2022-10-28T04:10:04.922Z,10.77
2022-10-28T04:18:13.002Z,10.02
2022-10-28T04:26:18.344Z,9.88
2022-10-28T04:34:26.317Z,10.63
2022-10-28T04:42:31.653Z,9.85
2022-10-28T04:50:40.478Z,9.27
2022-10-28T04:58:50.368Z,10.80
2022-10-28T05:06:58.233Z,9.43
2022-10-28T05:15:03.534Z,9.60
2022-10-28T05:23:11.512Z,9.93
2022-10-28T05:31:16.846Z,10.45
2022-10-28T05:39:24.702Z,9.48
2022-10-28T05:47:29.995Z,10.13
2022-10-28T05:55:38.215Z,9.30
2022-10-28T06:03:43.594Z,10.63
2022-10-28T06:11:50.300Z,10.50
2022-10-28T06:19:55.754Z,10.00
2022-10-28T06:28:06.977Z,10.93
2022-10-28T06:36:15.620Z,9.57
2022-10-28T06:44:23.880Z,9.88
2022-10-28T06:52:30.632Z,13.70
2022-10-28T07:00:38.531Z,10.98
2022-10-28T07:08:43.797Z,11.52
2022-10-28T07:16:51.631Z,10.95
2022-10-28T07:24:56.866Z,10.23
2022-10-28T07:33:04.761Z,10.02
2022-10-28T07:41:11.708Z,11.48
2022-10-28T07:49:20.452Z,10.68
2022-10-28T07:57:25.783Z,10.85
2022-10-28T08:05:33.761Z,8.27
2022-10-28T08:13:40.364Z,10.13
2022-10-28T08:21:48.304Z,7.95
2022-10-28T08:29:54.184Z,7.40
2022-10-28T08:38:02.078Z,6.30
2022-10-28T08:46:15.059Z,6.85
2022-10-28T08:54:26.577Z,5.60
2022-10-28T09:02:36.085Z,5.43
2022-10-28T09:11:04.263Z,5.70
2022-10-28T09:19:18.848Z,6.72
2022-10-28T09:27:55.469Z,7.47
2022-10-28T09:36:02.273Z,8.00
2022-10-28T09:44:18.687Z,7.25
2022-10-28T09:52:28.021Z,7.35
2022-10-28T10:00:36.539Z,7.18
2022-10-28T10:08:43.074Z,7.57
2022-10-28T10:17:16.346Z,7.70
2022-10-28T10:25:30.036Z,8.00
2022-10-28T10:33:39.871Z,8.43
2022-10-28T10:41:46.833Z,10.13
2022-10-28T10:49:56.484Z,7.43
2022-10-28T10:58:02.651Z,5.40
2022-10-28T11:06:24.018Z,5.88
2022-10-28T11:14:32.525Z,4.93
2022-10-28T11:22:50.521Z,4.57
2022-10-28T11:39:23.525Z,5.25
2022-10-28T11:47:50.432Z,5.03
2022-10-28T11:56:07.893Z,5.28
2022-10-28T12:04:35.977Z,5.53
2022-10-28T12:12:55.286Z,5.07
2022-10-28T12:21:05.259Z,4.43
2022-10-28T12:29:20.752Z,4.78
2022-10-28T12:37:28.836Z,4.40
2022-10-28T12:45:36.914Z,4.57
2022-10-28T12:53:47.267Z,4.15
2022-10-28T13:01:55.872Z,5.40
2022-10-28T13:10:13.987Z,6.20
2022-10-28T13:18:56.072Z,4.60
2022-10-28T13:27:04.792Z,3.88
2022-10-28T13:35:26.760Z,3.45
2022-10-28T13:44:00.380Z,4.70
2022-10-28T13:52:22.867Z,4.45
2022-10-28T14:00:40.856Z,4.67
2022-10-28T14:08:48.768Z,5.55
2022-10-28T14:16:54.476Z,5.03
2022-10-28T14:25:02.555Z,5.97
2022-10-28T14:33:24.186Z,5.00
2022-10-28T14:41:48.450Z,5.88
2022-10-28T14:50:02.388Z,5.50
2022-10-28T14:58:31.064Z,5.57
2022-10-28T15:06:39.747Z,6.40
2022-10-28T15:14:50.939Z,6.82
2022-10-28T15:22:57.564Z,6.88
2022-10-28T15:31:05.672Z,8.57
2022-10-28T15:39:19.058Z,9.82
2022-10-28T16:04:05.612Z,12.75
2022-10-28T16:12:18.225Z,16.23
2022-10-28T16:20:30.424Z,15.47
2022-10-28T16:28:37.949Z,17.02
2022-10-28T16:36:45.939Z,21.98
2022-10-28T16:44:51.843Z,17.40
2022-10-28T16:52:59.683Z,19.85
2022-10-28T17:01:05.048Z,18.92
2022-10-28T17:09:12.973Z,19.42
2022-10-28T17:17:18.487Z,18.00
2022-10-28T17:25:26.549Z,18.80
2022-10-28T17:33:31.839Z,23.80
2022-10-28T17:41:39.976Z,25.05
2022-10-28T17:49:45.274Z,25.00
2022-10-28T17:57:53.389Z,23.02
2022-10-28T18:05:59.365Z,25.42
2022-10-28T18:14:07.749Z,24.83
2022-10-28T18:22:13.120Z,22.70
2022-10-28T18:30:21.112Z,23.02
2022-10-28T18:38:26.418Z,22.85
2022-10-28T18:46:37.662Z,22.17
2022-10-28T18:54:42.945Z,21.10
2022-10-28T19:02:50.958Z,21.30
2022-10-28T19:10:58.495Z,21.65
2022-10-28T19:19:07.945Z,25.38
2022-10-28T19:27:13.345Z,27.70
2022-10-28T19:35:21.248Z,23.60
2022-10-28T19:43:26.479Z,23.40
2022-10-28T19:51:36.801Z,23.75
2022-10-28T19:59:42.055Z,59.33
2022-10-28T20:07:49.955Z,43.22
2022-10-28T20:15:55.249Z,38.83
2022-10-28T20:24:03.506Z,30.27
2022-10-28T20:32:08.857Z,29.60
2022-10-28T20:40:17.065Z,28.77
2022-10-28T20:48:22.373Z,26.23
2022-10-28T20:56:31.677Z,21.73
2022-10-28T21:04:37.605Z,20.33
2022-10-28T21:12:45.643Z,20.00
2022-10-28T21:20:50.855Z,20.70
2022-10-28T21:28:59.176Z,19.83
2022-10-28T21:37:04.351Z,17.63
2022-10-28T21:45:13.142Z,19.45
2022-10-28T21:53:18.475Z,19.88
2022-10-28T22:01:27.480Z,18.85
2022-10-28T22:09:35.012Z,21.65
2022-10-28T22:17:45.409Z,23.05
2022-10-28T22:25:50.624Z,24.25
2022-10-28T22:33:59.081Z,23.02
2022-10-28T22:42:04.620Z,21.52
2022-10-28T22:50:13.108Z,19.88
2022-10-28T22:58:19.182Z,16.95
2022-10-28T23:06:28.868Z,15.18
2022-10-28T23:14:34.088Z,16.70
2022-10-28T23:22:41.926Z,14.77
2022-10-28T23:30:47.249Z,14.23
2022-10-28T23:38:59.371Z,15.38
